sensor_id;sensor_type;location;lat;lon;timestamp;pressure;altitude;pressure_sealevel;temperature
64947;BMP280;51469;52.150;4.682;2024-03-23T00:54:53;101204.59;;;14.70
64947;BMP280;51469;52.150;4.682;2024-03-23T00:57:18;101227.50;;;14.78
64947;BMP280;51469;52.150;4.682;2024-03-23T00:59:44;101211.69;;;14.75
64947;BMP280;51469;52.150;4.682;2024-03-23T01:02:09;101233.78;;;14.82
64947;BMP280;51469;52.150;4.682;2024-03-23T01:04:34;101248.78;;;14.88
64947;BMP280;51469;52.150;4.682;2024-03-23T01:07:00;101244.06;;;14.85
64947;BMP280;51469;52.150;4.682;2024-03-23T01:09:25;101245.66;;;14.79
64947;BMP280;51469;52.150;4.682;2024-03-23T01:11:50;101241.66;;;14.80
64947;BMP280;51469;52.150;4.682;2024-03-23T01:14:16;101240.91;;;14.76
64947;BMP280;51469;52.150;4.682;2024-03-23T01:16:41;101239.31;;;14.75
64947;BMP280;51469;52.150;4.682;2024-03-23T01:19:06;101237.75;;;14.67
64947;BMP280;51469;52.150;4.682;2024-03-23T01:21:31;101238.53;;;14.71
64947;BMP280;51469;52.150;4.682;2024-03-23T01:23:57;101232.22;;;14.70
64947;BMP280;51469;52.150;4.682;2024-03-23T01:26:22;101223.53;;;14.72
64947;BMP280;51469;52.150;4.682;2024-03-23T01:28:47;101237.75;;;14.70
64947;BMP280;51469;52.150;4.682;2024-03-23T01:31:13;101231.44;;;14.73
64947;BMP280;51469;52.150;4.682;2024-03-23T01:33:38;101226.72;;;14.74
64947;BMP280;51469;52.150;4.682;2024-03-23T01:36:03;101231.84;;;14.68
64947;BMP280;51469;52.150;4.682;2024-03-23T01:38:29;101228.31;;;14.68
64947;BMP280;51469;52.150;4.682;2024-03-23T01:40:57;101229.88;;;14.55
64947;BMP280;51469;52.150;4.682;2024-03-23T01:43:23;101237.34;;;14.51
64947;BMP280;51469;52.150;4.682;2024-03-23T01:45:48;101219.63;;;14.45
64947;BMP280;51469;52.150;4.682;2024-03-23T01:48:13;101232.22;;;14.39
64947;BMP280;51469;52.150;4.682;2024-03-23T01:50:39;101229.84;;;14.41
64947;BMP280;51469;52.150;4.682;2024-03-23T01:53:05;101220.34;;;14.42
64947;BMP280;51469;52.150;4.682;2024-03-23T01:55:32;101215.63;;;14.46
64947;BMP280;51469;52.150;4.682;2024-03-23T01:57:58;101220.41;;;14.38
64947;BMP280;51469;52.150;4.682;2024-03-23T02:00:23;101225.88;;;14.35
64947;BMP280;51469;52.150;4.682;2024-03-23T02:02:49;101230.59;;;14.34
64947;BMP280;51469;52.150;4.682;2024-03-23T02:05:14;101225.88;;;14.28
64947;BMP280;51469;52.150;4.682;2024-03-23T02:07:41;101220.72;;;14.23
64947;BMP280;51469;52.150;4.682;2024-03-23T02:10:07;101213.63;;;14.25
64947;BMP280;51469;52.150;4.682;2024-03-23T02:12:33;101216.78;;;14.24
64947;BMP280;51469;52.150;4.682;2024-03-23T02:14:59;101213.25;;;14.20
64947;BMP280;51469;52.150;4.682;2024-03-23T02:17:24;101201.81;;;14.14
64947;BMP280;51469;52.150;4.682;2024-03-23T02:19:50;101197.47;;;14.17
64947;BMP280;51469;52.150;4.682;2024-03-23T02:22:15;101191.16;;;14.13
64947;BMP280;51469;52.150;4.682;2024-03-23T02:24:41;101198.25;;;14.10
64947;BMP280;51469;52.150;4.682;2024-03-23T02:27:07;101196.66;;;14.06
64947;BMP280;51469;52.150;4.682;2024-03-23T02:29:32;101190.34;;;14.02
64947;BMP280;51469;52.150;4.682;2024-03-23T02:31:57;101188.38;;;13.99
64947;BMP280;51469;52.150;4.682;2024-03-23T02:34:24;101180.88;;;13.96
64947;BMP280;51469;52.150;4.682;2024-03-23T02:36:49;101176.13;;;13.93
64947;BMP280;51469;52.150;4.682;2024-03-23T02:39:14;101175.34;;;13.96
64947;BMP280;51469;52.150;4.682;2024-03-23T02:41:40;101179.28;;;13.98
64947;BMP280;51469;52.150;4.682;2024-03-23T02:44:05;101180.88;;;13.96
64947;BMP280;51469;52.150;4.682;2024-03-23T02:46:30;101180.09;;;13.95
64947;BMP280;51469;52.150;4.682;2024-03-23T02:48:56;101177.72;;;13.94
64947;BMP280;51469;52.150;4.682;2024-03-23T02:51:21;101174.16;;;13.90
64947;BMP280;51469;52.150;4.682;2024-03-23T02:53:47;101170.59;;;13.86
64947;BMP280;51469;52.150;4.682;2024-03-23T02:56:12;101169.81;;;13.82
64947;BMP280;51469;52.150;4.682;2024-03-23T02:58:41;101167.84;;;13.79
64947;BMP280;51469;52.150;4.682;2024-03-23T03:01:06;101166.63;;;13.73
64947;BMP280;51469;52.150;4.682;2024-03-23T03:03:32;101168.19;;;13.70
64947;BMP280;51469;52.150;4.682;2024-03-23T03:05:57;101167.34;;;13.63
64947;BMP280;51469;52.150;4.682;2024-03-23T03:08:23;101165.00;;;13.61
64947;BMP280;51469;52.150;4.682;2024-03-23T03:10:48;101167.34;;;13.63
64947;BMP280;51469;52.150;4.682;2024-03-23T03:13:14;101163.47;;;13.67
64947;BMP280;51469;52.150;4.682;2024-03-23T03:15:43;101158.69;;;13.68
64947;BMP280;51469;52.150;4.682;2024-03-23T03:18:09;101161.09;;;13.66
64947;BMP280;51469;52.150;4.682;2024-03-23T03:20:38;101144.53;;;13.59
64947;BMP280;51469;52.150;4.682;2024-03-23T03:23:04;101152.00;;;13.62
64947;BMP280;51469;52.150;4.682;2024-03-23T03:25:29;101157.94;;;13.60
64947;BMP280;51469;52.150;4.682;2024-03-23T03:27:55;101153.94;;;13.58
64947;BMP280;51469;52.150;4.682;2024-03-23T03:30:20;101158.69;;;13.57
64947;BMP280;51469;52.150;4.682;2024-03-23T03:32:46;101154.75;;;13.55
64947;BMP280;51469;52.150;4.682;2024-03-23T03:35:11;101161.84;;;13.56
64947;BMP280;51469;52.150;4.682;2024-03-23T03:37:37;101157.91;;;13.57
64947;BMP280;51469;52.150;4.682;2024-03-23T03:40:02;101143.72;;;13.58
64947;BMP280;51469;52.150;4.682;2024-03-23T03:42:28;101148.44;;;13.58
64947;BMP280;51469;52.150;4.682;2024-03-23T03:44:53;101133.91;;;13.61
64947;BMP280;51469;52.150;4.682;2024-03-23T03:47:19;101130.34;;;13.64
64947;BMP280;51469;52.150;4.682;2024-03-23T03:49:44;101136.28;;;13.66
64947;BMP280;51469;52.150;4.682;2024-03-23T03:52:10;101136.66;;;13.68
64947;BMP280;51469;52.150;4.682;2024-03-23T03:54:35;101131.16;;;13.75
64947;BMP280;51469;52.150;4.682;2024-03-23T03:57:00;101121.75;;;13.76
64947;BMP280;51469;52.150;4.682;2024-03-23T03:59:26;101128.03;;;13.73
64947;BMP280;51469;52.150;4.682;2024-03-23T04:01:51;101120.13;;;13.75
64947;BMP280;51469;52.150;4.682;2024-03-23T04:04:17;101117.75;;;13.66
64947;BMP280;51469;52.150;4.682;2024-03-23T04:06:43;101120.13;;;13.71
64947;BMP280;51469;52.150;4.682;2024-03-23T04:09:09;101124.03;;;13.60
64947;BMP280;51469;52.150;4.682;2024-03-23T04:11:35;101123.63;;;13.58
64947;BMP280;51469;52.150;4.682;2024-03-23T04:14:00;101133.47;;;13.55
64947;BMP280;51469;52.150;4.682;2024-03-23T04:16:33;101122.47;;;13.59
64947;BMP280;51469;52.150;4.682;2024-03-23T04:18:59;101108.34;;;13.67
64947;BMP280;51469;52.150;4.682;2024-03-23T04:21:24;101113.06;;;13.67
64947;BMP280;51469;52.150;4.682;2024-03-23T04:23:50;101114.63;;;13.75
64947;BMP280;51469;52.150;4.682;2024-03-23T04:26:15;101120.91;;;13.68
64947;BMP280;51469;52.150;4.682;2024-03-23T04:28:41;101108.31;;;13.64
64947;BMP280;51469;52.150;4.682;2024-03-23T04:31:06;101104.31;;;13.58
64947;BMP280;51469;52.150;4.682;2024-03-23T04:33:31;101116.53;;;13.57
64947;BMP280;51469;52.150;4.682;2024-03-23T04:35:57;101122.44;;;13.52
64947;BMP280;51469;52.150;4.682;2024-03-23T04:38:22;101115.34;;;13.58
64947;BMP280;51469;52.150;4.682;2024-03-23T04:40:58;101120.09;;;13.54
64947;BMP280;51469;52.150;4.682;2024-03-23T04:43:23;101110.59;;;13.51
64947;BMP280;51469;52.150;4.682;2024-03-23T04:45:49;101113.75;;;13.50
64947;BMP280;51469;52.150;4.682;2024-03-23T04:48:14;101116.88;;;13.45
64947;BMP280;51469;52.150;4.682;2024-03-23T04:50:40;101116.16;;;13.55
64947;BMP280;51469;52.150;4.682;2024-03-23T04:53:06;101115.34;;;13.58
64947;BMP280;51469;52.150;4.682;2024-03-23T04:55:31;101112.19;;;13.45
64947;BMP280;51469;52.150;4.682;2024-03-23T04:57:57;101116.88;;;13.45
64947;BMP280;51469;52.150;4.682;2024-03-23T05:00:22;101114.59;;;13.54
64947;BMP280;51469;52.150;4.682;2024-03-23T05:02:48;101114.59;;;13.57
64947;BMP280;51469;52.150;4.682;2024-03-23T05:05:14;101117.34;;;13.54
64947;BMP280;51469;52.150;4.682;2024-03-23T05:07:39;101121.66;;;13.48
64947;BMP280;51469;52.150;4.682;2024-03-23T05:10:05;101118.50;;;13.56
64947;BMP280;51469;52.150;4.682;2024-03-23T05:12:30;101122.88;;;13.68
64947;BMP280;51469;52.150;4.682;2024-03-23T05:14:56;101117.00;;;13.76
64947;BMP280;51469;52.150;4.682;2024-03-23T05:17:21;101125.66;;;13.75
64947;BMP280;51469;52.150;4.682;2024-03-23T05:19:47;101124.06;;;13.81
64947;BMP280;51469;52.150;4.682;2024-03-23T05:22:12;101126.88;;;13.74
64947;BMP280;51469;52.150;4.682;2024-03-23T05:24:37;101115.44;;;13.93
64947;BMP280;51469;52.150;4.682;2024-03-23T05:27:03;101116.25;;;13.97
64947;BMP280;51469;52.150;4.682;2024-03-23T05:29:28;101119.41;;;14.06
64947;BMP280;51469;52.150;4.682;2024-03-23T05:31:54;101117.88;;;14.15
64947;BMP280;51469;52.150;4.682;2024-03-23T05:34:22;101113.88;;;14.16
64947;BMP280;51469;52.150;4.682;2024-03-23T05:36:47;101120.19;;;13.96
64947;BMP280;51469;52.150;4.682;2024-03-23T05:39:14;101114.69;;;14.03
64947;BMP280;51469;52.150;4.682;2024-03-23T05:41:41;101107.53;;;13.81
64947;BMP280;51469;52.150;4.682;2024-03-23T05:44:07;101112.31;;;13.84
64947;BMP280;51469;52.150;4.682;2024-03-23T05:46:32;101105.97;;;13.73
64947;BMP280;51469;52.150;4.682;2024-03-23T05:49:01;101087.78;;;13.51
64947;BMP280;51469;52.150;4.682;2024-03-23T05:51:27;101110.69;;;13.86
64947;BMP280;51469;52.150;4.682;2024-03-23T05:53:52;101110.69;;;13.83
64947;BMP280;51469;52.150;4.682;2024-03-23T05:56:19;101111.91;;;13.96
64947;BMP280;51469;52.150;4.682;2024-03-23T05:58:44;101104.41;;;13.86
64947;BMP280;51469;52.150;4.682;2024-03-23T06:01:10;101112.69;;;13.93
64947;BMP280;51469;52.150;4.682;2024-03-23T06:03:35;101113.06;;;13.88
64947;BMP280;51469;52.150;4.682;2024-03-23T06:06:00;101110.78;;;14.04
64947;BMP280;51469;52.150;4.682;2024-03-23T06:08:26;101102.06;;;14.19
64947;BMP280;51469;52.150;4.682;2024-03-23T06:10:51;101111.53;;;14.29
64947;BMP280;51469;52.150;4.682;2024-03-23T06:13:16;101110.75;;;14.21
64947;BMP280;51469;52.150;4.682;2024-03-23T06:15:43;101106.06;;;14.22
64947;BMP280;51469;52.150;4.682;2024-03-23T06:18:08;101109.16;;;14.31
64947;BMP280;51469;52.150;4.682;2024-03-23T06:20:34;101108.00;;;14.39
64947;BMP280;51469;52.150;4.682;2024-03-23T06:23:03;101112.34;;;14.26
64947;BMP280;51469;52.150;4.682;2024-03-23T06:25:28;101099.72;;;14.18
64947;BMP280;51469;52.150;4.682;2024-03-23T06:27:54;101108.34;;;14.34
64947;BMP280;51469;52.150;4.682;2024-03-23T06:30:20;101109.97;;;14.24
64947;BMP280;51469;52.150;4.682;2024-03-23T06:32:45;101110.75;;;14.28
64947;BMP280;51469;52.150;4.682;2024-03-23T06:35:10;101110.72;;;14.07
64947;BMP280;51469;52.150;4.682;2024-03-23T06:37:36;101109.97;;;14.38
64947;BMP280;51469;52.150;4.682;2024-03-23T06:40:02;101102.88;;;14.20
64947;BMP280;51469;52.150;4.682;2024-03-23T06:42:27;101102.50;;;14.21
64947;BMP280;51469;52.150;4.682;2024-03-23T06:44:53;101104.44;;;14.10
64947;BMP280;51469;52.150;4.682;2024-03-23T06:47:18;101104.44;;;14.07
64947;BMP280;51469;52.150;4.682;2024-03-23T06:49:43;101106.78;;;14.05
64947;BMP280;51469;52.150;4.682;2024-03-23T06:52:09;101106.00;;;13.80
64947;BMP280;51469;52.150;4.682;2024-03-23T06:54:34;101112.28;;;13.77
64947;BMP280;51469;52.150;4.682;2024-03-23T06:56:59;101111.88;;;13.82
64947;BMP280;51469;52.150;4.682;2024-03-23T06:59:25;101107.56;;;13.88
64947;BMP280;51469;52.150;4.682;2024-03-23T07:01:50;101102.06;;;13.98
64947;BMP280;51469;52.150;4.682;2024-03-23T07:04:16;101102.84;;;13.85
64947;BMP280;51469;52.150;4.682;2024-03-23T07:06:45;101105.25;;;14.04
64947;BMP280;51469;52.150;4.682;2024-03-23T07:09:10;101092.63;;;14.03
64947;BMP280;51469;52.150;4.682;2024-03-23T07:11:36;101108.38;;;14.06
64947;BMP280;51469;52.150;4.682;2024-03-23T07:14:01;101106.81;;;14.12
64947;BMP280;51469;52.150;4.682;2024-03-23T07:16:28;101105.63;;;14.41
64947;BMP280;51469;52.150;4.682;2024-03-23T07:18:53;101112.34;;;14.26
64947;BMP280;51469;52.150;4.682;2024-03-23T07:21:19;101113.91;;;14.09
64947;BMP280;51469;52.150;4.682;2024-03-23T07:23:44;101113.91;;;14.23
64947;BMP280;51469;52.150;4.682;2024-03-23T07:26:10;101117.44;;;14.31
64947;BMP280;51469;52.150;4.682;2024-03-23T07:28:35;101114.69;;;14.03
64947;BMP280;51469;52.150;4.682;2024-03-23T07:31:08;101117.84;;;14.12
64947;BMP280;51469;52.150;4.682;2024-03-23T07:33:35;101115.47;;;14.28
64947;BMP280;51469;52.150;4.682;2024-03-23T07:36:01;101115.44;;;13.93
64947;BMP280;51469;52.150;4.682;2024-03-23T07:38:27;101111.50;;;14.01
64947;BMP280;51469;52.150;4.682;2024-03-23T07:41:05;101109.94;;;14.00
64947;BMP280;51469;52.150;4.682;2024-03-23T07:43:30;101113.09;;;14.05
64947;BMP280;51469;52.150;4.682;2024-03-23T07:45:56;101103.66;;;14.38
64947;BMP280;51469;52.150;4.682;2024-03-23T07:48:21;101113.09;;;14.58
64947;BMP280;51469;52.150;4.682;2024-03-23T07:51:10;101111.44;;;14.92
64947;BMP280;51469;52.150;4.682;2024-03-23T07:53:36;101111.09;;;14.83
64947;BMP280;51469;52.150;4.682;2024-03-23T07:56:06;101105.16;;;14.77
64947;BMP280;51469;52.150;4.682;2024-03-23T07:58:32;101111.91;;;14.59
64947;BMP280;51469;52.150;4.682;2024-03-23T08:01:06;101109.94;;;14.49
64947;BMP280;51469;52.150;4.682;2024-03-23T08:03:39;101100.47;;;14.29
64947;BMP280;51469;52.150;4.682;2024-03-23T08:08:33;101102.88;;;14.44
64947;BMP280;51469;52.150;4.682;2024-03-23T08:10:59;101098.50;;;14.68
64947;BMP280;51469;52.150;4.682;2024-03-23T08:13:24;101110.63;;;15.02
64947;BMP280;51469;52.150;4.682;2024-03-23T08:15:49;101095.06;;;15.36
64947;BMP280;51469;52.150;4.682;2024-03-23T08:18:15;101096.19;;;15.49
64947;BMP280;51469;52.150;4.682;2024-03-23T08:20:43;101098.75;;;15.05
64947;BMP280;51469;52.150;4.682;2024-03-23T08:23:08;101106.63;;;15.10
64947;BMP280;51469;52.150;4.682;2024-03-23T08:25:34;101098.75;;;15.05
64947;BMP280;51469;52.150;4.682;2024-03-23T08:28:00;101110.31;;;14.79
64947;BMP280;51469;52.150;4.682;2024-03-23T08:30:25;101097.97;;;15.08
64947;BMP280;51469;52.150;4.682;2024-03-23T08:32:51;101099.84;;;15.25
64947;BMP280;51469;52.150;4.682;2024-03-23T08:35:17;101092.38;;;15.22
64947;BMP280;51469;52.150;4.682;2024-03-23T08:37:42;101094.78;;;15.13
64947;BMP280;51469;52.150;4.682;2024-03-23T08:40:08;101105.00;;;15.23
64947;BMP280;51469;52.150;4.682;2024-03-23T08:42:34;101104.09;;;15.47
64947;BMP280;51469;52.150;4.682;2024-03-23T08:44:59;101097.66;;;15.64
64947;BMP280;51469;52.150;4.682;2024-03-23T08:47:24;101095.34;;;15.56
64947;BMP280;51469;52.150;4.682;2024-03-23T08:49:50;101099.50;;;15.16
64947;BMP280;51469;52.150;4.682;2024-03-23T08:52:15;101093.22;;;15.05
64947;BMP280;51469;52.150;4.682;2024-03-23T08:54:41;101098.03;;;14.87
64947;BMP280;51469;52.150;4.682;2024-03-23T08:57:06;101101.66;;;14.49
64947;BMP280;51469;52.150;4.682;2024-03-23T08:59:32;101096.16;;;14.49
64947;BMP280;51469;52.150;4.682;2024-03-23T09:01:57;101106.38;;;14.52
64947;BMP280;51469;52.150;4.682;2024-03-23T09:04:23;101096.53;;;14.58
64947;BMP280;51469;52.150;4.682;2024-03-23T09:06:48;101102.75;;;14.97
64947;BMP280;51469;52.150;4.682;2024-03-23T09:09:14;101089.25;;;15.13
64947;BMP280;51469;52.150;4.682;2024-03-23T09:11:39;101091.66;;;15.11
64947;BMP280;51469;52.150;4.682;2024-03-23T09:14:04;101095.47;;;15.31
64947;BMP280;51469;52.150;4.682;2024-03-23T09:16:30;101104.03;;;15.54
64947;BMP280;51469;52.150;4.682;2024-03-23T09:18:55;101093.84;;;15.44
64947;BMP280;51469;52.150;4.682;2024-03-23T09:21:20;101099.59;;;15.71
64947;BMP280;51469;52.150;4.682;2024-03-23T09:23:46;101085.22;;;15.93
64947;BMP280;51469;52.150;4.682;2024-03-23T09:26:12;101100.34;;;15.82
64947;BMP280;51469;52.150;4.682;2024-03-23T09:28:37;101088.66;;;15.53
64947;BMP280;51469;52.150;4.682;2024-03-23T09:31:06;101102.53;;;15.46
64947;BMP280;51469;52.150;4.682;2024-03-23T09:33:39;101083.69;;;15.20
64947;BMP280;51469;52.150;4.682;2024-03-23T09:36:05;101087.28;;;15.10
64947;BMP280;51469;52.150;4.682;2024-03-23T09:38:31;101086.06;;;15.22
64947;BMP280;51469;52.150;4.682;2024-03-23T09:40:57;101086.09;;;15.18
64947;BMP280;51469;52.150;4.682;2024-03-23T09:43:22;101093.88;;;15.37
64947;BMP280;51469;52.150;4.682;2024-03-23T09:45:48;101089.75;;;15.66
64947;BMP280;51469;52.150;4.682;2024-03-23T09:48:14;101093.59;;;15.79
64947;BMP280;51469;52.150;4.682;2024-03-23T09:50:40;101093.13;;;15.91
64947;BMP280;51469;52.150;4.682;2024-03-23T09:53:10;101093.41;;;16.11
64947;BMP280;51469;52.150;4.682;2024-03-23T09:55:37;101089.53;;;15.98
64947;BMP280;51469;52.150;4.682;2024-03-23T09:58:03;101094.59;;;15.55
64947;BMP280;51469;52.150;4.682;2024-03-23T10:00:30;101091.56;;;15.36
64947;BMP280;51469;52.150;4.682;2024-03-23T10:02:55;101100.44;;;15.64
64947;BMP280;51469;52.150;4.682;2024-03-23T10:05:23;101099.41;;;15.37
64947;BMP280;51469;52.150;4.682;2024-03-23T10:07:50;101102.13;;;15.44
64947;BMP280;51469;52.150;4.682;2024-03-23T10:10:16;101091.56;;;15.36
64947;BMP280;51469;52.150;4.682;2024-03-23T10:12:45;101100.84;;;15.59
64947;BMP280;51469;52.150;4.682;2024-03-23T10:15:25;101094.03;;;15.74
64947;BMP280;51469;52.150;4.682;2024-03-23T10:17:51;101092.28;;;15.43
64947;BMP280;51469;52.150;4.682;2024-03-23T10:20:21;101092.41;;;15.15
64947;BMP280;51469;52.150;4.682;2024-03-23T10:22:50;101098.31;;;15.21
64947;BMP280;51469;52.150;4.682;2024-03-23T10:25:16;101092.28;;;15.36
64947;BMP280;51469;52.150;4.682;2024-03-23T10:27:42;101112.94;;;15.14
64947;BMP280;51469;52.150;4.682;2024-03-23T10:30:09;101096.78;;;15.13
64947;BMP280;51469;52.150;4.682;2024-03-23T10:32:35;101089.06;;;15.55
64947;BMP280;51469;52.150;4.682;2024-03-23T10:35:38;101093.38;;;15.56
64947;BMP280;51469;52.150;4.682;2024-03-23T10:38:05;101094.41;;;15.83
64947;BMP280;51469;52.150;4.682;2024-03-23T10:40:31;101104.81;;;15.62
64947;BMP280;51469;52.150;4.682;2024-03-23T10:42:58;101083.78;;;15.06
64947;BMP280;51469;52.150;4.682;2024-03-23T10:45:23;101090.75;;;15.35
64947;BMP280;51469;52.150;4.682;2024-03-23T10:47:49;101074.66;;;15.74
64947;BMP280;51469;52.150;4.682;2024-03-23T10:50:14;101094.59;;;16.06
64947;BMP280;51469;52.150;4.682;2024-03-23T10:52:44;101084.69;;;16.09
64947;BMP280;51469;52.150;4.682;2024-03-23T10:55:11;101083.03;;;16.18
64947;BMP280;51469;52.150;4.682;2024-03-23T10:57:44;101081.53;;;16.10
64947;BMP280;51469;52.150;4.682;2024-03-23T11:00:11;101104.63;;;15.86
64947;BMP280;51469;52.150;4.682;2024-03-23T11:02:37;101085.50;;;15.51
64947;BMP280;51469;52.150;4.682;2024-03-23T11:07:51;101075.69;;;15.36
64947;BMP280;51469;52.150;4.682;2024-03-23T11:10:27;101085.91;;;15.50
64947;BMP280;51469;52.150;4.682;2024-03-23T11:12:54;101084.38;;;15.45
64947;BMP280;51469;52.150;4.682;2024-03-23T11:15:20;101083.66;;;15.34
64947;BMP280;51469;52.150;4.682;2024-03-23T11:18:05;101084.41;;;15.38
64947;BMP280;51469;52.150;4.682;2024-03-23T11:20:33;101078.56;;;15.84
64947;BMP280;51469;52.150;4.682;2024-03-23T11:22:59;101078.47;;;15.98
64947;BMP280;51469;52.150;4.682;2024-03-23T11:25:26;101083.38;;;15.76
64947;BMP280;51469;52.150;4.682;2024-03-23T11:27:55;101080.19;;;15.78
64947;BMP280;51469;52.150;4.682;2024-03-23T11:30:23;101083.13;;;16.08
64947;BMP280;51469;52.150;4.682;2024-03-23T11:32:50;101053.06;;;16.06
64947;BMP280;51469;52.150;4.682;2024-03-23T11:35:29;101060.69;;;16.39
64947;BMP280;51469;52.150;4.682;2024-03-23T11:38:17;101056.03;;;16.29
64947;BMP280;51469;52.150;4.682;2024-03-23T11:40:47;101060.50;;;16.16
64947;BMP280;51469;52.150;4.682;2024-03-23T11:43:19;101054.06;;;16.63
64947;BMP280;51469;52.150;4.682;2024-03-23T11:48:16;101051.75;;;16.58
64947;BMP280;51469;52.150;4.682;2024-03-23T11:50:55;101057.78;;;16.83
64947;BMP280;51469;52.150;4.682;2024-03-23T11:53:22;101043.16;;;16.49
64947;BMP280;51469;52.150;4.682;2024-03-23T11:55:52;101038.94;;;16.71
64947;BMP280;51469;52.150;4.682;2024-03-23T11:58:18;101042.84;;;16.77
64947;BMP280;51469;52.150;4.682;2024-03-23T12:01:03;101034.16;;;16.75
64947;BMP280;51469;52.150;4.682;2024-03-23T12:03:30;101051.63;;;16.69
64947;BMP280;51469;52.150;4.682;2024-03-23T12:05:59;101053.41;;;16.52
64947;BMP280;51469;52.150;4.682;2024-03-23T12:08:32;101045.19;;;16.08
64947;BMP280;51469;52.150;4.682;2024-03-23T12:11:08;101036.47;;;16.10
64947;BMP280;51469;52.150;4.682;2024-03-23T12:13:34;101027.59;;;16.25
64947;BMP280;51469;52.150;4.682;2024-03-23T12:16:17;101021.72;;;16.57
64947;BMP280;51469;52.150;4.682;2024-03-23T12:18:44;101016.13;;;16.60
64947;BMP280;51469;52.150;4.682;2024-03-23T12:21:10;101020.38;;;16.98
64947;BMP280;51469;52.150;4.682;2024-03-23T12:23:38;101015.00;;;16.84
64947;BMP280;51469;52.150;4.682;2024-03-23T12:26:04;101006.69;;;17.14
64947;BMP280;51469;52.150;4.682;2024-03-23T12:28:29;101019.88;;;17.33
64947;BMP280;51469;52.150;4.682;2024-03-23T12:30:55;101020.50;;;16.91
64947;BMP280;51469;52.150;4.682;2024-03-23T12:33:20;101017.00;;;16.54
64947;BMP280;51469;52.150;4.682;2024-03-23T12:35:46;101005.88;;;15.83
64947;BMP280;51469;52.150;4.682;2024-03-23T12:38:12;101022.47;;;15.83
64947;BMP280;51469;52.150;4.682;2024-03-23T12:40:37;101014.59;;;15.78
64947;BMP280;51469;52.150;4.682;2024-03-23T12:43:02;101030.19;;;16.02
64947;BMP280;51469;52.150;4.682;2024-03-23T12:45:28;101026.25;;;16.03
64947;BMP280;51469;52.150;4.682;2024-03-23T12:47:53;101037.41;;;15.93
64947;BMP280;51469;52.150;4.682;2024-03-23T12:50:19;101011.19;;;16.04
64947;BMP280;51469;52.150;4.682;2024-03-23T12:52:45;101009.88;;;16.19
64947;BMP280;51469;52.150;4.682;2024-03-23T12:55:10;101007.53;;;16.51
64947;BMP280;51469;52.150;4.682;2024-03-23T12:57:36;101003.50;;;16.59
64947;BMP280;51469;52.150;4.682;2024-03-23T13:00:01;101005.44;;;17.18
64947;BMP280;51469;52.150;4.682;2024-03-23T13:02:28;101002.44;;;17.33
64947;BMP280;51469;52.150;4.682;2024-03-23T13:04:54;100997.09;;;17.45
64947;BMP280;51469;52.150;4.682;2024-03-23T13:07:20;101013.75;;;17.45
64947;BMP280;51469;52.150;4.682;2024-03-23T13:09:46;101005.56;;;17.38
64947;BMP280;51469;52.150;4.682;2024-03-23T13:12:12;101006.50;;;17.28
64947;BMP280;51469;52.150;4.682;2024-03-23T13:14:38;101000.13;;;17.31
64947;BMP280;51469;52.150;4.682;2024-03-23T13:17:04;100993.09;;;17.23
64947;BMP280;51469;52.150;4.682;2024-03-23T13:19:29;100991.00;;;17.04
64947;BMP280;51469;52.150;4.682;2024-03-23T13:21:59;100988.72;;;16.69
64947;BMP280;51469;52.150;4.682;2024-03-23T13:24:25;100996.34;;;17.18
64947;BMP280;51469;52.150;4.682;2024-03-23T13:26:52;100992.78;;;17.44
64947;BMP280;51469;52.150;4.682;2024-03-23T13:29:21;100982.06;;;17.69
64947;BMP280;51469;52.150;4.682;2024-03-23T13:31:47;100976.72;;;17.55
64947;BMP280;51469;52.150;4.682;2024-03-23T13:34:13;100983.47;;;17.31
64947;BMP280;51469;52.150;4.682;2024-03-23T13:36:41;100976.84;;;16.99
64947;BMP280;51469;52.150;4.682;2024-03-23T13:39:06;100977.75;;;16.89
64947;BMP280;51469;52.150;4.682;2024-03-23T13:41:44;100972.78;;;17.03
64947;BMP280;51469;52.150;4.682;2024-03-23T13:44:13;100969.31;;;17.22
64947;BMP280;51469;52.150;4.682;2024-03-23T13:46:40;100972.47;;;17.24
64947;BMP280;51469;52.150;4.682;2024-03-23T13:49:18;100960.03;;;17.09
64947;BMP280;51469;52.150;4.682;2024-03-23T13:51:46;100957.44;;;17.25
64947;BMP280;51469;52.150;4.682;2024-03-23T13:54:11;100964.28;;;17.40
64947;BMP280;51469;52.150;4.682;2024-03-23T13:56:37;100964.13;;;17.01
64947;BMP280;51469;52.150;4.682;2024-03-23T13:59:02;100964.47;;;17.03
64947;BMP280;51469;52.150;4.682;2024-03-23T14:01:28;100954.44;;;16.86
64947;BMP280;51469;52.150;4.682;2024-03-23T14:03:55;100948.25;;;16.45
64947;BMP280;51469;52.150;4.682;2024-03-23T14:06:20;100956.28;;;16.96
64947;BMP280;51469;52.150;4.682;2024-03-23T14:08:46;100962.28;;;17.17
64947;BMP280;51469;52.150;4.682;2024-03-23T14:11:11;100959.63;;;17.33
64947;BMP280;51469;52.150;4.682;2024-03-23T14:13:37;100970.75;;;17.07
64947;BMP280;51469;52.150;4.682;2024-03-23T14:16:03;100964.97;;;16.68
64947;BMP280;51469;52.150;4.682;2024-03-23T14:18:29;100955.72;;;16.78
64947;BMP280;51469;52.150;4.682;2024-03-23T14:20:59;100949.38;;;16.77
64947;BMP280;51469;52.150;4.682;2024-03-23T14:23:28;100946.88;;;16.90
64947;BMP280;51469;52.150;4.682;2024-03-23T14:25:55;100960.50;;;17.31
64947;BMP280;51469;52.150;4.682;2024-03-23T14:28:21;100940.81;;;17.48
64947;BMP280;51469;52.150;4.682;2024-03-23T14:30:48;100935.06;;;17.58
64947;BMP280;51469;52.150;4.682;2024-03-23T14:33:13;100941.50;;;17.29
64947;BMP280;51469;52.150;4.682;2024-03-23T14:35:38;100942.03;;;16.94
64947;BMP280;51469;52.150;4.682;2024-03-23T14:38:05;100943.19;;;16.70
64947;BMP280;51469;52.150;4.682;2024-03-23T14:40:30;100932.66;;;16.58
64947;BMP280;51469;52.150;4.682;2024-03-23T14:42:55;100938.09;;;16.95
64947;BMP280;51469;52.150;4.682;2024-03-23T14:45:21;100925.78;;;16.96
64947;BMP280;51469;52.150;4.682;2024-03-23T14:47:47;100922.56;;;17.24
64947;BMP280;51469;52.150;4.682;2024-03-23T14:50:12;100918.03;;;17.56
64947;BMP280;51469;52.150;4.682;2024-03-23T14:52:41;100915.97;;;17.41
64947;BMP280;51469;52.150;4.682;2024-03-23T14:55:07;100923.25;;;17.32